Time,TemperatureF,DewpointF,PressureIn,WindDirection,WindDirectionDegrees,WindSpeedMPH,WindSpeedGustMPH,Humidity,HourlyPrecipIn,Conditions,Clouds,dailyrainin,SoftwareType,DateUTC
2013-04-18 00:03:00,58.0,55.0,-100.00,ESE,105,2.0,2.0,88,0.00,,,-99.99,,2013-04-18 04:03:00,
2013-04-18 00:13:00,58.0,55.0,-100.00,ESE,110,1.0,3.0,89,0.00,,,-99.99,,2013-04-18 04:13:00,
2013-04-18 00:23:00,58.0,55.0,-100.00,South,175,0.0,2.0,89,0.00,,,-99.99,,2013-04-18 04:23:00,
2013-04-18 00:33:00,58.0,55.0,-100.00,ESE,115,4.0,4.0,88,0.00,,,-99.99,,2013-04-18 04:33:00,
2013-04-18 00:43:00,57.0,54.0,-100.00,ESE,105,4.0,6.0,91,0.00,,,-99.99,,2013-04-18 04:43:00,
2013-04-18 00:53:00,58.0,55.0,-100.00,ESE,105,6.0,7.0,90,0.00,,,-99.99,,2013-04-18 04:53:00,
2013-04-18 01:02:00,57.0,55.0,-100.00,ESE,110,9.0,12.0,91,0.00,,,-99.99,,2013-04-18 05:02:00,
2013-04-18 01:12:00,57.0,55.0,-100.00,ESE,110,7.0,12.0,91,0.00,,,-99.99,,2013-04-18 05:12:00,
2013-04-18 01:22:00,57.0,55.0,-100.00,ESE,110,6.0,9.0,91,0.00,,,-99.99,,2013-04-18 05:22:00,
2013-04-18 01:33:00,57.0,55.0,-100.00,ESE,120,6.0,8.0,92,0.00,,,-99.99,,2013-04-18 05:33:00,
2013-04-18 01:42:00,57.0,55.0,-100.00,SE,135,6.0,10.0,92,0.00,,,-99.99,,2013-04-18 05:42:00,
2013-04-18 01:52:00,57.0,55.0,-100.00,SE,125,9.0,12.0,92,0.00,,,-99.99,,2013-04-18 05:52:00,
2013-04-18 02:02:00,58.0,55.0,-100.00,SE,130,9.0,16.0,91,0.00,,,-99.99,,2013-04-18 06:02:00,
2013-04-18 02:12:00,58.0,55.0,-100.00,SE,130,8.0,14.0,92,0.00,,,-99.99,,2013-04-18 06:12:00,
2013-04-18 02:22:00,58.0,55.0,-100.00,SE,130,8.0,14.0,92,0.00,,,-99.99,,2013-04-18 06:22:00,
2013-04-18 02:32:00,58.0,55.0,-100.00,SE,145,10.0,14.0,92,0.00,,,-99.99,,2013-04-18 06:32:00,
2013-04-18 02:42:00,58.0,56.0,-100.00,SE,135,11.0,15.0,92,0.00,,,-99.99,,2013-04-18 06:42:00,
2013-04-18 02:52:00,58.0,56.0,-100.00,SE,140,12.0,16.0,92,0.00,,,-99.99,,2013-04-18 06:52:00,
2013-04-18 03:02:00,58.0,56.0,-100.00,SE,140,12.0,17.0,92,0.00,,,-99.99,,2013-04-18 07:02:00,
2013-04-18 03:12:00,58.0,56.0,-100.00,SE,135,11.0,16.0,92,0.00,,,-99.99,,2013-04-18 07:12:00,
2013-04-18 03:22:00,58.0,56.0,-100.00,SSE,150,11.0,15.0,93,0.00,,,-99.99,,2013-04-18 07:22:00,
2013-04-18 03:32:00,58.0,56.0,-100.00,SSE,150,11.0,16.0,93,0.00,,,-99.99,,2013-04-18 07:32:00,
2013-04-18 03:42:00,58.0,56.0,-100.00,SE,140,11.0,18.0,93,0.00,,,-99.99,,2013-04-18 07:42:00,
2013-04-18 03:52:00,58.0,56.0,-100.00,SSE,150,10.0,16.0,93,0.00,,,-99.99,,2013-04-18 07:52:00,
2013-04-18 04:02:00,57.0,56.0,-100.00,SSE,150,9.0,13.0,94,0.00,,,-99.99,,2013-04-18 08:02:00,
2013-04-18 04:12:00,58.0,56.0,-100.00,SE,145,7.0,12.0,93,0.00,,,-99.99,,2013-04-18 08:12:00,
2013-04-18 04:22:00,58.0,56.0,-100.00,SSE,155,9.0,11.0,94,0.00,,,-99.99,,2013-04-18 08:22:00,
2013-04-18 04:32:00,57.0,56.0,-100.00,SE,145,7.0,10.0,94,0.00,,,-99.99,,2013-04-18 08:32:00,
2013-04-18 04:42:00,57.0,56.0,-100.00,SE,140,8.0,11.0,94,0.00,,,-99.99,,2013-04-18 08:42:00,
2013-04-18 04:52:00,57.0,56.0,-100.00,SE,140,9.0,13.0,95,0.00,,,-99.99,,2013-04-18 08:52:00,
2013-04-18 05:02:00,57.0,56.0,-100.00,SSE,150,12.0,14.0,94,0.00,,,-99.99,,2013-04-18 09:02:00,
2013-04-18 05:12:00,58.0,56.0,-100.00,SE,145,12.0,16.0,94,0.00,,,-99.99,,2013-04-18 09:12:00,
2013-04-18 05:22:00,58.0,56.0,-100.00,SSE,150,10.0,15.0,93,0.00,,,-99.99,,2013-04-18 09:22:00,
2013-04-18 05:33:00,58.0,56.0,-100.00,SE,140,12.0,17.0,93,0.00,,,-99.99,,2013-04-18 09:33:00,
2013-04-18 05:43:00,58.0,56.0,-100.00,SE,140,11.0,17.0,93,0.00,,,-99.99,,2013-04-18 09:43:00,
2013-04-18 05:53:00,58.0,56.0,-100.00,SSE,155,11.0,16.0,93,0.00,,,-99.99,,2013-04-18 09:53:00,
2013-04-18 06:03:00,58.0,56.0,-100.00,SSE,150,11.0,17.0,92,0.00,,,-99.99,,2013-04-18 10:03:00,
2013-04-18 06:12:00,58.0,56.0,-100.00,SE,140,11.0,14.0,93,0.00,,,-99.99,,2013-04-18 10:12:00,
2013-04-18 06:23:00,58.0,56.0,-100.00,SE,145,11.0,16.0,93,0.00,,,-99.99,,2013-04-18 10:23:00,
2013-04-18 06:33:00,58.0,56.0,-100.00,SSE,150,11.0,16.0,93,0.00,,,-99.99,,2013-04-18 10:33:00,
2013-04-18 06:42:00,58.0,56.0,-100.00,SSE,165,11.0,16.0,93,0.00,,,-99.99,,2013-04-18 10:42:00,
2013-04-18 06:52:00,58.0,56.0,-100.00,SSE,165,9.0,14.0,93,0.00,,,-99.99,,2013-04-18 10:52:00,
2013-04-18 07:02:00,58.0,56.0,-100.00,SSE,150,9.0,14.0,93,0.00,,,-99.99,,2013-04-18 11:02:00,
2013-04-18 07:12:00,58.0,56.0,-100.00,SSE,155,9.0,14.0,93,0.00,,,-99.99,,2013-04-18 11:12:00,
2013-04-18 07:22:00,58.0,56.0,-100.00,SSE,155,10.0,15.0,92,0.00,,,-99.99,,2013-04-18 11:22:00,
2013-04-18 07:32:00,58.0,56.0,-100.00,SSE,165,11.0,16.0,91,0.00,,,-99.99,,2013-04-18 11:32:00,
2013-04-18 07:42:00,59.0,56.0,-100.00,SSE,165,12.0,16.0,90,0.00,,,-99.99,,2013-04-18 11:42:00,
2013-04-18 07:52:00,59.0,56.0,-100.00,SSE,165,11.0,16.0,90,0.00,,,-99.99,,2013-04-18 11:52:00,
2013-04-18 08:02:00,60.0,56.0,-100.00,SSE,165,12.0,16.0,88,0.00,,,-99.99,,2013-04-18 12:02:00,
2013-04-18 08:12:00,60.0,56.0,-100.00,SSE,165,10.0,16.0,87,0.00,,,-99.99,,2013-04-18 12:12:00,
2013-04-18 08:22:00,60.0,56.0,-100.00,SSE,160,11.0,16.0,87,0.00,,,-99.99,,2013-04-18 12:22:00,
2013-04-18 08:32:00,60.0,56.0,-100.00,SSE,155,13.0,19.0,86,0.00,,,-99.99,,2013-04-18 12:32:00,
2013-04-18 08:42:00,61.0,56.0,-100.00,SSE,165,16.0,22.0,84,0.00,,,-99.99,,2013-04-18 12:42:00,
2013-04-18 08:52:00,61.0,56.0,-100.00,SSE,155,15.0,22.0,83,0.00,,,-99.99,,2013-04-18 12:52:00,
2013-04-18 09:03:00,62.0,57.0,-100.00,SSE,165,15.0,21.0,83,0.00,,,-99.99,,2013-04-18 13:03:00,
2013-04-18 09:12:00,62.0,57.0,-100.00,SSE,155,16.0,19.0,81,0.00,,,-99.99,,2013-04-18 13:12:00,
2013-04-18 09:22:00,63.0,57.0,-100.00,SSE,165,16.0,22.0,80,0.00,,,-99.99,,2013-04-18 13:22:00,
2013-04-18 09:32:00,64.0,57.0,-100.00,South,175,16.0,23.0,79,0.00,,,-99.99,,2013-04-18 13:32:00,
2013-04-18 09:42:00,65.0,58.0,-100.00,South,175,14.0,22.0,78,0.00,,,-99.99,,2013-04-18 13:42:00,
2013-04-18 09:52:00,65.0,57.0,-100.00,South,185,15.0,22.0,75,0.00,,,-99.99,,2013-04-18 13:52:00,
2013-04-18 10:02:00,65.0,58.0,-100.00,South,185,12.0,17.0,76,0.00,,,-99.99,,2013-04-18 14:02:00,
2013-04-18 10:12:00,67.0,59.0,-100.00,South,180,14.0,21.0,76,0.00,,,-99.99,,2013-04-18 14:12:00,
2013-04-18 10:22:00,67.0,58.0,-100.00,South,185,16.0,24.0,73,0.00,,,-99.99,,2013-04-18 14:22:00,
2013-04-18 10:32:00,67.0,58.0,-100.00,South,190,13.0,22.0,72,0.00,,,-99.99,,2013-04-18 14:32:00,
2013-04-18 10:42:00,69.0,59.0,-100.00,South,175,15.0,24.0,71,0.00,,,-99.99,,2013-04-18 14:42:00,
2013-04-18 10:52:00,69.0,59.0,-100.00,South,180,14.0,24.0,72,0.00,,,-99.99,,2013-04-18 14:52:00,
2013-04-18 11:03:00,69.0,59.0,-100.00,South,185,16.0,25.0,69,0.00,,,-99.99,,2013-04-18 15:03:00,
2013-04-18 11:12:00,71.0,59.0,-100.00,South,185,17.0,22.0,67,0.00,,,-99.99,,2013-04-18 15:12:00,
2013-04-18 11:22:00,71.0,60.0,-100.00,SSW,195,16.0,24.0,68,0.00,,,-99.99,,2013-04-18 15:22:00,
2013-04-18 11:33:00,71.0,59.0,-100.00,SSW,195,16.0,25.0,67,0.00,,,-99.99,,2013-04-18 15:33:00,
2013-04-18 11:43:00,71.0,60.0,-100.00,South,185,20.0,29.0,66,0.00,,,-99.99,,2013-04-18 15:43:00,
2013-04-18 11:52:00,72.0,60.0,-100.00,South,180,21.0,26.0,66,0.00,,,-99.99,,2013-04-18 15:52:00,
2013-04-18 12:03:00,72.0,60.0,-100.00,SSW,205,16.0,27.0,65,0.00,,,-99.99,,2013-04-18 16:03:00,
2013-04-18 12:13:00,73.0,60.0,-100.00,SSW,205,21.0,31.0,63,0.00,,,-99.99,,2013-04-18 16:13:00,
2013-04-18 12:23:00,74.0,60.0,-100.00,SSW,195,18.0,29.0,62,0.00,,,-99.99,,2013-04-18 16:23:00,
2013-04-18 12:33:00,74.0,61.0,-100.00,SSW,200,14.0,25.0,63,0.00,,,-99.99,,2013-04-18 16:33:00,
2013-04-18 12:43:00,75.0,61.0,-100.00,SSW,200,19.0,25.0,60,0.00,,,-99.99,,2013-04-18 16:43:00,
2013-04-18 12:52:00,76.0,62.0,-100.00,SSW,210,15.0,24.0,62,0.00,,,-99.99,,2013-04-18 16:52:00,
2013-04-18 13:03:00,76.0,61.0,-100.00,SSW,200,16.0,26.0,60,0.00,,,-99.99,,2013-04-18 17:03:00,
2013-04-18 13:12:00,76.0,61.0,-100.00,SSW,195,19.0,29.0,60,0.00,,,-99.99,,2013-04-18 17:12:00,
2013-04-18 13:22:00,76.0,61.0,-100.00,South,180,23.0,32.0,59,0.00,,,-99.99,,2013-04-18 17:22:00,
2013-04-18 13:33:00,76.0,60.0,-100.00,SSW,195,21.0,32.0,57,0.00,,,-99.99,,2013-04-18 17:33:00,
2013-04-18 13:42:00,77.0,61.0,-100.00,South,170,19.0,27.0,57,0.00,,,-99.99,,2013-04-18 17:42:00,
2013-04-18 13:52:00,77.0,60.0,-100.00,SSW,210,22.0,27.0,54,0.00,,,-99.99,,2013-04-18 17:52:00,
2013-04-18 14:03:00,77.0,60.0,-100.00,SSW,205,19.0,24.0,57,0.00,,,-99.99,,2013-04-18 18:03:00,
2013-04-18 14:12:00,78.0,60.0,-100.00,SSW,210,17.0,25.0,53,0.00,,,-99.99,,2013-04-18 18:12:00,
2013-04-18 14:23:00,78.0,62.0,-100.00,SSW,195,15.0,25.0,56,0.00,,,-99.99,,2013-04-18 18:23:00,
2013-04-18 14:32:00,78.0,60.0,-100.00,South,190,17.0,25.0,54,0.00,,,-99.99,,2013-04-18 18:32:00,
2013-04-18 14:42:00,79.0,60.0,-100.00,South,170,24.0,30.0,53,0.00,,,-99.99,,2013-04-18 18:42:00,
2013-04-18 14:52:00,79.0,59.0,-100.00,SSW,195,23.0,29.0,50,0.00,,,-99.99,,2013-04-18 18:52:00,
2013-04-18 15:03:00,79.0,57.0,-100.00,South,190,25.0,39.0,46,0.00,,,-99.99,,2013-04-18 19:03:00,
2013-04-18 15:12:00,80.0,56.0,-100.00,South,190,24.0,35.0,43,0.00,,,-99.99,,2013-04-18 19:12:00,
2013-04-18 15:22:00,80.0,55.0,-100.00,South,190,25.0,34.0,42,0.00,,,-99.99,,2013-04-18 19:22:00,
2013-04-18 15:32:00,80.0,57.0,-100.00,SSW,195,19.0,32.0,44,0.00,,,-99.99,,2013-04-18 19:32:00,
2013-04-18 15:42:00,81.0,56.0,-100.00,SSW,200,21.0,30.0,41,0.00,,,-99.99,,2013-04-18 19:42:00,
2013-04-18 15:52:00,82.0,55.0,-100.00,SSW,205,21.0,33.0,39,0.00,,,-99.99,,2013-04-18 19:52:00,
2013-04-18 16:02:00,82.0,55.0,-100.00,South,185,17.0,29.0,40,0.00,,,-99.99,,2013-04-18 20:02:00,
2013-04-18 16:12:00,81.0,53.0,-100.00,SSW,195,19.0,32.0,37,0.00,,,-99.99,,2013-04-18 20:12:00,
2013-04-18 16:22:00,82.0,55.0,-100.00,South,185,27.0,35.0,39,0.00,,,-99.99,,2013-04-18 20:22:00,
2013-04-18 16:32:00,81.0,52.0,-100.00,SSW,195,23.0,35.0,37,0.00,,,-99.99,,2013-04-18 20:32:00,
2013-04-18 16:42:00,82.0,53.0,-100.00,South,190,17.0,34.0,37,0.00,,,-99.99,,2013-04-18 20:42:00,
2013-04-18 16:52:00,82.0,54.0,-100.00,SSW,195,17.0,27.0,38,0.00,,,-99.99,,2013-04-18 20:52:00,
2013-04-18 17:02:00,81.0,55.0,-100.00,South,180,21.0,32.0,41,0.00,,,-99.99,,2013-04-18 21:02:00,
2013-04-18 17:12:00,82.0,55.0,-100.00,South,180,20.0,30.0,40,0.00,,,-99.99,,2013-04-18 21:12:00,
2013-04-18 17:22:00,81.0,55.0,-100.00,South,185,17.0,32.0,41,0.00,,,-99.99,,2013-04-18 21:22:00,
2013-04-18 17:33:00,81.0,54.0,-100.00,South,185,28.0,35.0,39,0.00,,,-99.99,,2013-04-18 21:33:00,
2013-04-18 17:43:00,81.0,54.0,-100.00,South,175,25.0,37.0,39,0.00,,,-99.99,,2013-04-18 21:43:00,
2013-04-18 17:52:00,81.0,55.0,-100.00,South,190,24.0,30.0,40,0.00,,,-99.99,,2013-04-18 21:52:00,
2013-04-18 18:03:00,81.0,55.0,-100.00,South,190,22.0,32.0,40,0.00,,,-99.99,,2013-04-18 22:03:00,
2013-04-18 18:13:00,81.0,54.0,-100.00,SSW,200,18.0,30.0,39,0.00,,,-99.99,,2013-04-18 22:13:00,
2013-04-18 18:23:00,80.0,55.0,-100.00,SSW,200,19.0,25.0,40,0.00,,,-99.99,,2013-04-18 22:23:00,
2013-04-18 18:33:00,81.0,53.0,-100.00,SSW,205,22.0,32.0,37,0.00,,,-99.99,,2013-04-18 22:33:00,
2013-04-18 18:42:00,80.0,54.0,-100.00,SSW,205,18.0,22.0,39,0.00,,,-99.99,,2013-04-18 22:42:00,
2013-04-18 18:52:00,80.0,55.0,-100.00,South,190,15.0,25.0,42,0.00,,,-99.99,,2013-04-18 22:52:00,
2013-04-18 19:04:00,80.0,54.0,-100.00,South,185,17.0,25.0,41,0.00,,,-99.99,,2013-04-18 23:04:00,
2013-04-18 19:12:00,79.0,56.0,-100.00,South,185,11.0,22.0,46,0.00,,,-99.99,,2013-04-18 23:12:00,
2013-04-18 19:21:00,80.0,55.0,-100.00,South,185,19.0,24.0,43,0.00,,,-99.99,,2013-04-18 23:21:00,
2013-04-18 19:32:00,78.0,56.0,-100.00,South,180,16.0,22.0,45,0.00,,,-99.99,,2013-04-18 23:32:00,
2013-04-18 19:42:00,78.0,55.0,-100.00,South,180,16.0,22.0,45,0.00,,,-99.99,,2013-04-18 23:42:00,
2013-04-18 19:52:00,78.0,56.0,-100.00,South,175,18.0,23.0,46,0.00,,,-99.99,,2013-04-18 23:52:00,
2013-04-18 20:01:00,77.0,56.0,-100.00,South,180,16.0,23.0,47,0.00,,,-99.99,,2013-04-19 00:01:00,
2013-04-18 20:12:00,77.0,56.0,-100.00,South,175,14.0,25.0,47,0.00,,,-99.99,,2013-04-19 00:12:00,
2013-04-18 20:22:00,77.0,56.0,-100.00,South,175,17.0,25.0,47,0.00,,,-99.99,,2013-04-19 00:22:00,
2013-04-18 20:32:00,76.0,56.0,-100.00,South,175,16.0,22.0,48,0.00,,,-99.99,,2013-04-19 00:32:00,
2013-04-18 20:42:00,77.0,56.0,-100.00,South,175,16.0,25.0,48,0.00,,,-99.99,,2013-04-19 00:42:00,
2013-04-18 20:51:00,76.0,55.0,-100.00,South,180,15.0,20.0,48,0.00,,,-99.99,,2013-04-19 00:51:00,
2013-04-18 21:01:00,76.0,55.0,-100.00,South,180,13.0,26.0,49,0.00,,,-99.99,,2013-04-19 01:01:00,
2013-04-18 21:11:00,76.0,55.0,-100.00,South,175,15.0,19.0,48,0.00,,,-99.99,,2013-04-19 01:11:00,
2013-04-18 21:21:00,76.0,55.0,-100.00,South,175,15.0,19.0,48,0.00,,,-99.99,,2013-04-19 01:21:00,
2013-04-18 21:32:00,74.0,55.0,-100.00,SSE,165,11.0,16.0,51,0.00,,,-99.99,,2013-04-19 01:32:00,
2013-04-18 21:42:00,75.0,56.0,-100.00,South,175,12.0,17.0,51,0.00,,,-99.99,,2013-04-19 01:42:00,
2013-04-18 21:52:00,74.0,56.0,-100.00,South,175,12.0,18.0,53,0.00,,,-99.99,,2013-04-19 01:52:00,
2013-04-18 22:02:00,74.0,56.0,-100.00,South,170,11.0,15.0,53,0.00,,,-99.99,,2013-04-19 02:02:00,
2013-04-18 22:11:00,73.0,56.0,-100.00,South,170,12.0,16.0,54,0.00,,,-99.99,,2013-04-19 02:11:00,
2013-04-18 22:21:00,73.0,56.0,-100.00,SSE,165,9.0,16.0,55,0.00,,,-99.99,,2013-04-19 02:21:00,
2013-04-18 22:32:00,73.0,56.0,-100.00,SSE,165,11.0,14.0,54,0.00,,,-99.99,,2013-04-19 02:32:00,
2013-04-18 22:42:00,73.0,56.0,-100.00,SSE,160,11.0,16.0,54,0.00,,,-99.99,,2013-04-19 02:42:00,
2013-04-18 22:51:00,73.0,56.0,-100.00,SSE,155,12.0,17.0,54,0.00,,,-99.99,,2013-04-19 02:51:00,
2013-04-18 23:01:00,73.0,55.0,-100.00,SSE,160,12.0,17.0,53,0.00,,,-99.99,,2013-04-19 03:01:00,
2013-04-18 23:12:00,73.0,56.0,-100.00,SSE,150,11.0,17.0,54,0.00,,,-99.99,,2013-04-19 03:12:00,
2013-04-18 23:21:00,73.0,56.0,-100.00,SSE,165,14.0,19.0,54,0.00,,,-99.99,,2013-04-19 03:21:00,
2013-04-18 23:33:00,73.0,55.0,-100.00,SSE,165,17.0,22.0,53,0.00,,,-99.99,,2013-04-19 03:33:00,
2013-04-18 23:43:00,73.0,55.0,-100.00,SSE,155,16.0,24.0,54,0.00,,,-99.99,,2013-04-19 03:43:00,
2013-04-18 23:53:00,73.0,55.0,-100.00,SSE,160,11.0,21.0,54,0.00,,,-99.99,,2013-04-19 03:53:00,